Time;durP1;ratioP1;P1;durP2;ratioP2;P2;SDS_P1;SDS_P2;PMS_P1;PMS_P2;Temp;Humidity;BMP_temperature;BMP_pressure;BME280_temperature;BME280_humidity;BME280_pressure;Samples;Min_cycle;Max_cycle;Signal;HPM_P1;HPM_P2
2023/03/31 00:00:29;;;;;;;20.52;3.65;;;10.80;99.90;;;;;;5115935;27;20039;-65
2023/03/31 00:02:57;;;;;;;20.23;3.53;;;10.80;99.90;;;;;;5120222;27;20035;-63
2023/03/31 00:05:23;;;;;;;23.30;3.38;;;10.80;99.90;;;;;;5117745;27;20580;-63
2023/03/31 00:08:02;;;;;;;19.00;3.63;;;10.80;99.90;;;;;;5098900;28;20084;-66
2023/03/31 00:10:33;;;;;;;18.75;3.30;;;10.80;99.90;;;;;;5105877;28;20374;-62
2023/03/31 00:13:00;;;;;;;27.88;4.32;;;10.70;99.90;;;;;;5111980;27;20043;-63
2023/03/31 00:15:26;;;;;;;21.20;4.57;;;10.70;99.90;;;;;;5120813;27;20134;-63
2023/03/31 00:17:52;;;;;;;23.35;4.00;;;10.70;99.90;;;;;;5118851;27;20047;-63
2023/03/31 00:20:18;;;;;;;22.13;4.10;;;10.70;99.90;;;;;;5121458;28;20628;-63
2023/03/31 00:22:53;;;;;;;21.55;4.47;;;10.60;99.90;;;;;;5114830;28;20065;-63
2023/03/31 00:25:19;;;;;;;21.58;3.72;;;10.60;99.90;;;;;;5114284;28;20054;-65
2023/03/31 00:27:45;;;;;;;19.98;4.15;;;10.50;99.90;;;;;;5106943;28;20039;-63
2023/03/31 00:30:12;;;;;;;19.35;3.85;;;10.50;99.90;;;;;;5103975;28;20173;-67
2023/03/31 00:32:38;;;;;;;22.13;4.50;;;10.50;99.90;;;;;;5106393;28;20545;-63
2023/03/31 00:35:04;;;;;;;19.55;3.55;;;10.40;99.90;;;;;;5119196;28;20118;-63
2023/03/31 00:37:32;;;;;;;17.55;3.63;;;10.40;99.90;;;;;;5127824;28;20167;-63
2023/03/31 00:39:58;;;;;;;19.35;3.38;;;10.40;99.90;;;;;;5102056;28;20050;-63
2023/03/31 00:42:24;;;;;;;19.52;3.40;;;10.30;99.90;;;;;;5102996;28;20028;-63
2023/03/31 00:45:15;;;;;;;22.20;3.80;;;10.30;99.90;;;;;;5130787;28;20471;-63
2023/03/31 00:48:15;;;;;;;18.08;3.53;;;10.20;99.90;;;;;;5118175;28;20036;-63
2023/03/31 00:50:55;;;;;;;11.55;3.20;;;10.20;99.90;;;;;;5070571;28;20438;-63
2023/03/31 00:53:25;;;;;;;18.90;3.38;;;10.20;99.90;;;;;;5106266;28;20043;-63
2023/03/31 00:55:55;;;;;;;25.85;4.45;;;10.20;99.90;;;;;;5122991;28;20389;-63
2023/03/31 00:58:27;;;;;;;18.27;3.05;;;10.20;99.90;;;;;;5127081;28;20114;-63
2023/03/31 01:00:56;;;;;;;16.70;3.42;;;10.10;99.90;;;;;;5106350;28;20050;-64
2023/03/31 01:03:22;;;;;;;20.17;3.15;;;10.10;99.90;;;;;;5095032;28;20043;-63
2023/03/31 01:05:50;;;;;;;16.85;3.15;;;10.10;99.90;;;;;;5123597;28;20067;-64
2023/03/31 01:08:18;;;;;;;18.13;3.53;;;10.10;99.90;;;;;;5125007;28;20042;-64
2023/03/31 01:10:49;;;;;;;22.65;4.40;;;10.00;99.90;;;;;;5116436;28;20115;-64
2023/03/31 01:13:16;;;;;;;24.23;5.07;;;10.00;99.90;;;;;;5102682;28;20043;-63
2023/03/31 01:15:42;;;;;;;14.35;3.58;;;10.00;99.90;;;;;;5106288;28;20043;-63
2023/03/31 01:18:10;;;;;;;18.00;3.65;;;10.10;99.90;;;;;;5107217;28;20489;-64
2023/03/31 01:20:41;;;;;;;19.15;3.33;;;10.00;99.90;;;;;;5129048;28;20569;-63
2023/03/31 01:23:25;;;;;;;23.50;4.10;;;10.00;99.90;;;;;;5129405;28;20401;-64
2023/03/31 01:26:12;;;;;;;18.50;3.95;;;10.00;99.90;;;;;;5104885;28;20568;-63
2023/03/31 01:28:53;;;;;;;18.60;4.00;;;10.00;99.90;;;;;;5103257;28;20039;-63
2023/03/31 01:31:44;;;;;;;22.83;3.95;;;10.00;99.90;;;;;;5122064;28;20451;-63
2023/03/31 01:34:46;;;;;;;17.00;3.55;;;10.00;99.90;;;;;;5090466;27;20068;-63
2023/03/31 01:37:30;;;;;;;21.47;5.87;;;10.00;99.90;;;;;;5105247;27;20107;-64
2023/03/31 01:40:23;;;;;;;15.40;3.58;;;10.10;99.90;;;;;;5117613;27;20035;-63
2023/03/31 01:43:17;;;;;;;18.00;3.40;;;10.10;99.90;;;;;;5098170;28;20044;-64
2023/03/31 01:46:35;;;;;;;12.52;3.35;;;10.10;99.90;;;;;;5105274;27;20112;-63
2023/03/31 01:49:18;;;;;;;19.80;4.13;;;10.10;99.90;;;;;;5022022;28;20069;-64
2023/03/31 01:52:05;;;;;;;16.23;3.47;;;10.10;99.90;;;;;;5120530;27;20386;-63
2023/03/31 01:54:31;;;;;;;16.75;4.15;;;10.10;99.90;;;;;;5098419;28;20040;-63
2023/03/31 01:57:10;;;;;;;10.57;3.40;;;10.10;99.90;;;;;;5128357;27;20445;-63
2023/03/31 02:00:08;;;;;;;15.38;3.75;;;10.10;99.90;;;;;;5133343;27;20038;-63
2023/03/31 02:02:46;;;;;;;11.82;3.35;;;10.10;99.90;;;;;;5104279;27;20039;-64
2023/03/31 02:05:17;;;;;;;15.25;3.70;;;10.10;99.90;;;;;;5127634;27;20061;-63
2023/03/31 02:07:57;;;;;;;14.80;3.42;;;10.10;99.90;;;;;;5121418;27;20071;-63
2023/03/31 02:10:25;;;;;;;12.65;3.60;;;10.20;99.90;;;;;;5105491;27;20126;-63
2023/03/31 02:12:53;;;;;;;12.88;3.85;;;10.20;99.90;;;;;;5126304;27;20039;-64
2023/03/31 02:15:25;;;;;;;13.02;3.30;;;10.20;99.90;;;;;;5100240;27;20053;-63
2023/03/31 02:17:53;;;;;;;16.23;3.50;;;10.20;99.90;;;;;;5103883;28;20075;-63
2023/03/31 02:20:21;;;;;;;13.68;4.00;;;10.20;99.90;;;;;;5121679;27;20767;-63
2023/03/31 02:22:52;;;;;;;18.05;3.63;;;10.20;99.90;;;;;;5106218;28;20047;-64
2023/03/31 02:25:22;;;;;;;14.68;4.20;;;10.20;99.90;;;;;;5125972;27;20041;-63
2023/03/31 02:28:13;;;;;;;10.88;3.10;;;10.20;99.90;;;;;;5124878;27;20121;-63
2023/03/31 02:31:08;;;;;;;15.20;3.95;;;10.20;99.90;;;;;;5124233;27;20043;-63
2023/03/31 02:33:34;;;;;;;15.52;3.20;;;10.30;99.90;;;;;;5079398;27;20504;-63
2023/03/31 02:36:00;;;;;;;17.33;4.43;;;10.20;99.90;;;;;;5105156;27;20051;-63
2023/03/31 02:38:26;;;;;;;12.50;3.55;;;10.20;99.90;;;;;;5098844;27;20270;-63
2023/03/31 02:40:52;;;;;;;13.13;3.75;;;10.30;99.90;;;;;;5132491;27;20396;-64
2023/03/31 02:43:18;;;;;;;12.93;4.00;;;10.30;99.90;;;;;;5122615;27;20039;-64
2023/03/31 02:45:49;;;;;;;13.40;4.45;;;10.30;99.90;;;;;;5107310;27;20035;-64
2023/03/31 02:48:21;;;;;;;14.07;3.97;;;10.30;99.90;;;;;;5097871;28;20043;-63
2023/03/31 02:50:49;;;;;;;13.65;4.50;;;10.30;99.90;;;;;;5105463;27;20087;-64
2023/03/31 02:53:50;;;;;;;12.60;3.80;;;10.30;99.90;;;;;;5129228;27;20046;-64
2023/03/31 02:56:40;;;;;;;13.10;4.50;;;10.30;99.90;;;;;;5110068;27;20045;-63
2023/03/31 02:59:35;;;;;;;16.50;4.05;;;10.30;99.90;;;;;;5124729;27;20047;-63
2023/03/31 03:02:01;;;;;;;15.70;4.43;;;9.80;99.90;;;;;;5129050;27;20048;-63
2023/03/31 03:04:35;;;;;;;12.25;5.05;;;10.40;99.90;;;;;;5109858;28;20039;-63
2023/03/31 03:07:11;;;;;;;15.05;4.53;;;10.40;99.90;;;;;;5120913;27;20408;-63
2023/03/31 03:09:42;;;;;;;11.30;4.20;;;10.30;99.90;;;;;;5130999;27;20042;-63
2023/03/31 03:12:21;;;;;;;12.70;4.50;;;10.30;99.90;;;;;;5112505;27;20046;-64
2023/03/31 03:14:58;;;;;;;10.52;4.38;;;10.40;99.90;;;;;;5105849;27;20047;-64
2023/03/31 03:17:29;;;;;;;17.48;4.20;;;10.40;99.90;;;;;;5122678;27;20066;-64
2023/03/31 03:19:58;;;;;;;13.10;4.15;;;10.40;99.90;;;;;;5113766;22;21658;-63
2023/03/31 03:22:24;;;;;;;12.57;4.38;;;10.30;99.90;;;;;;5126552;27;20545;-63
2023/03/31 03:24:51;;;;;;;11.48;4.70;;;10.40;99.90;;;;;;5110585;27;20036;-63
2023/03/31 03:27:17;;;;;;;9.80;3.92;;;10.30;99.90;;;;;;5123301;27;20035;-63
2023/03/31 03:29:42;;;;;;;9.40;4.47;;;10.30;99.90;;;;;;5086449;28;20124;-63
2023/03/31 03:32:09;;;;;;;12.07;3.90;;;10.30;99.90;;;;;;5099997;28;20453;-63
2023/03/31 03:34:35;;;;;;;12.27;4.10;;;10.30;99.90;;;;;;5077612;28;20501;-63
2023/03/31 03:37:01;;;;;;;13.27;4.10;;;10.30;99.90;;;;;;5100631;28;20374;-63
2023/03/31 03:39:26;;;;;;;10.32;3.95;;;10.30;99.90;;;;;;5083879;28;20050;-63
2023/03/31 03:41:53;;;;;;;12.43;3.83;;;10.30;99.90;;;;;;5108109;28;20031;-63
2023/03/31 03:44:18;;;;;;;11.88;3.63;;;10.30;99.90;;;;;;5108191;28;20147;-63
2023/03/31 03:46:44;;;;;;;11.23;4.05;;;10.30;99.90;;;;;;5106381;27;20076;-63
2023/03/31 03:49:09;;;;;;;11.02;3.88;;;10.30;99.90;;;;;;5110325;27;20032;-62
2023/03/31 03:51:35;;;;;;;14.02;4.20;;;10.30;99.90;;;;;;5103435;28;20148;-63
2023/03/31 03:54:00;;;;;;;10.35;3.97;;;10.40;99.90;;;;;;5108276;27;20031;-63
2023/03/31 03:56:27;;;;;;;7.20;3.47;;;10.30;99.90;;;;;;5105824;28;20058;-62
2023/03/31 03:58:52;;;;;;;9.85;3.70;;;10.30;99.90;;;;;;5083476;28;20044;-63
2023/03/31 04:01:18;;;;;;;11.60;3.83;;;10.40;99.90;;;;;;5095725;28;20117;-62
2023/03/31 04:03:44;;;;;;;12.48;4.25;;;10.40;99.90;;;;;;5090872;28;20051;-62
2023/03/31 04:06:09;;;;;;;9.10;3.38;;;10.40;99.90;;;;;;5091165;28;20032;-62
2023/03/31 04:08:35;;;;;;;10.60;3.88;;;10.40;99.90;;;;;;5086237;28;20566;-63
2023/03/31 04:11:01;;;;;;;9.77;3.63;;;10.40;99.90;;;;;;5092769;28;20031;-62
2023/03/31 04:13:27;;;;;;;13.45;3.72;;;10.40;99.90;;;;;;5098560;28;20028;-62
2023/03/31 04:15:53;;;;;;;11.48;4.00;;;10.40;99.90;;;;;;5095300;28;20052;-62
2023/03/31 04:18:21;;;;;;;9.57;3.75;;;10.40;99.90;;;;;;5095969;28;20151;-62
2023/03/31 04:21:03;;;;;;;12.82;3.58;;;10.40;99.90;;;;;;5083004;28;20070;-62
2023/03/31 04:23:45;;;;;;;13.88;3.65;;;10.40;99.90;;;;;;5109032;28;20112;-62
2023/03/31 04:26:12;;;;;;;16.23;4.55;;;10.40;99.90;;;;;;5098418;28;20048;-63
2023/03/31 04:28:41;;;;;;;10.50;3.47;;;10.40;99.90;;;;;;5100907;28;20044;-62
2023/03/31 04:31:09;;;;;;;8.82;3.17;;;10.40;99.90;;;;;;5110392;28;20047;-63
2023/03/31 04:33:38;;;;;;;14.25;3.63;;;10.40;99.90;;;;;;5085379;28;20047;-63
2023/03/31 04:36:16;;;;;;;10.10;4.00;;;10.40;99.90;;;;;;5101842;28;20036;-63
2023/03/31 04:38:45;;;;;;;11.60;3.35;;;10.40;99.90;;;;;;5097629;28;20032;-63
2023/03/31 04:41:14;;;;;;;11.27;3.50;;;10.40;99.90;;;;;;5098833;28;20067;-62
2023/03/31 04:43:40;;;;;;;11.32;3.53;;;10.40;99.90;;;;;;5099738;28;21286;-63
2023/03/31 04:46:06;;;;;;;11.00;3.78;;;10.40;99.90;;;;;;5080686;28;20044;-63
2023/03/31 04:48:31;;;;;;;13.23;3.53;;;10.40;99.90;;;;;;5093792;28;20508;-63
2023/03/31 04:50:57;;;;;;;9.00;3.22;;;10.40;99.90;;;;;;5093492;28;20160;-63
2023/03/31 04:53:22;;;;;;;11.82;3.50;;;10.40;99.90;;;;;;5104287;28;20044;-63
2023/03/31 04:55:49;;;;;;;12.00;3.63;;;10.40;99.90;;;;;;5105733;28;20051;-62
2023/03/31 04:58:15;;;;;;;6.68;2.72;;;10.40;99.90;;;;;;5106527;28;20083;-63
2023/03/31 05:00:40;;;;;;;12.80;3.45;;;10.40;99.90;;;;;;5095059;28;20070;-62
2023/03/31 05:03:07;;;;;;;10.13;3.45;;;10.40;99.90;;;;;;5107624;28;20325;-63
2023/03/31 05:05:32;;;;;;;11.20;3.45;;;10.40;99.90;;;;;;5102013;28;20277;-63
2023/03/31 05:07:58;;;;;;;10.50;3.00;;;10.40;99.90;;;;;;5107556;28;20038;-63
2023/03/31 05:10:24;;;;;;;11.05;3.60;;;10.40;99.90;;;;;;5086937;28;20467;-63
2023/03/31 05:12:49;;;;;;;9.90;3.25;;;10.40;99.90;;;;;;5081553;28;20031;-63
2023/03/31 05:15:16;;;;;;;11.75;4.20;;;10.40;99.90;;;;;;5080839;28;20125;-63
2023/03/31 05:17:41;;;;;;;13.27;3.22;;;10.40;99.90;;;;;;5082628;28;20482;-63
2023/03/31 05:20:08;;;;;;;12.05;3.53;;;10.40;99.90;;;;;;5101338;28;20058;-64
2023/03/31 05:22:38;;;;;;;9.75;3.47;;;10.40;99.90;;;;;;5089009;28;20032;-63
2023/03/31 05:25:06;;;;;;;10.57;4.03;;;10.40;99.90;;;;;;5106842;27;20036;-65
2023/03/31 05:27:32;;;;;;;10.60;3.60;;;10.40;99.90;;;;;;5105685;28;20086;-63
2023/03/31 05:29:58;;;;;;;8.23;3.50;;;10.40;99.90;;;;;;5091967;28;20046;-63
2023/03/31 05:32:26;;;;;;;13.57;3.70;;;10.40;99.90;;;;;;5067933;28;20485;-63
2023/03/31 05:34:55;;;;;;;7.90;3.20;;;10.40;99.90;;;;;;5107347;28;20469;-64
2023/03/31 05:37:25;;;;;;;11.20;3.70;;;10.40;99.90;;;;;;5108853;28;20513;-63
2023/03/31 05:39:51;;;;;;;8.98;3.67;;;10.40;99.90;;;;;;5079607;28;20409;-63
2023/03/31 05:42:17;;;;;;;12.77;3.47;;;10.40;99.90;;;;;;5106016;28;20031;-63
2023/03/31 05:44:43;;;;;;;10.40;4.00;;;10.30;99.90;;;;;;5096200;28;20071;-63
2023/03/31 05:47:09;;;;;;;9.10;3.58;;;10.30;99.90;;;;;;5106397;28;20516;-63
2023/03/31 05:49:35;;;;;;;11.85;4.20;;;10.30;99.90;;;;;;5094283;28;20036;-63
2023/03/31 05:52:00;;;;;;;11.70;4.35;;;10.30;99.90;;;;;;5083078;28;20043;-64
2023/03/31 05:54:26;;;;;;;10.43;4.20;;;10.30;99.90;;;;;;5105066;28;20077;-64
2023/03/31 05:56:52;;;;;;;10.63;3.60;;;10.30;99.90;;;;;;5090114;28;20040;-64
2023/03/31 05:59:18;;;;;;;9.38;3.75;;;10.40;99.90;;;;;;5109014;28;21163;-65
2023/03/31 06:01:44;;;;;;;9.65;3.65;;;10.40;99.90;;;;;;5085457;28;20047;-63
2023/03/31 06:04:09;;;;;;;11.88;3.30;;;10.60;99.90;;;;;;5101567;28;20063;-63
2023/03/31 06:06:36;;;;;;;12.10;3.35;;;10.40;99.90;;;;;;5091041;28;20068;-65
2023/03/31 06:09:03;;;;;;;8.40;3.47;;;10.40;99.90;;;;;;5102241;28;20302;-63
2023/03/31 06:11:29;;;;;;;10.70;3.60;;;10.40;99.90;;;;;;5091510;28;20456;-63
2023/03/31 06:13:55;;;;;;;6.75;3.03;;;10.40;99.90;;;;;;5107842;28;20046;-65
2023/03/31 06:16:20;;;;;;;9.75;2.92;;;10.40;99.90;;;;;;5104434;28;20028;-64
2023/03/31 06:18:46;;;;;;;10.02;2.83;;;10.40;99.90;;;;;;5094495;28;20035;-64
2023/03/31 06:21:15;;;;;;;9.27;2.83;;;10.40;99.90;;;;;;5102290;28;20030;-64
2023/03/31 06:23:43;;;;;;;7.65;2.78;;;10.40;99.90;;;;;;5100989;28;20038;-65
2023/03/31 06:26:12;;;;;;;8.10;2.63;;;10.40;99.90;;;;;;5085298;28;20039;-64
2023/03/31 06:28:38;;;;;;;9.18;2.67;;;10.40;99.90;;;;;;5112254;27;20027;-63
2023/03/31 06:31:16;;;;;;;9.32;3.00;;;10.40;99.90;;;;;;5094915;28;20031;-64
2023/03/31 06:33:42;;;;;;;12.10;2.90;;;10.40;99.90;;;;;;5092554;28;20089;-63
2023/03/31 06:36:09;;;;;;;14.85;3.28;;;10.40;99.90;;;;;;5108773;28;20063;-64
2023/03/31 06:38:37;;;;;;;8.23;3.20;;;10.40;99.90;;;;;;5110849;28;20455;-64
2023/03/31 06:41:03;;;;;;;9.45;2.65;;;10.40;99.90;;;;;;5110532;27;20059;-63
2023/03/31 06:43:29;;;;;;;9.07;3.30;;;10.40;99.90;;;;;;5103632;28;20067;-64
2023/03/31 06:45:55;;;;;;;8.88;2.78;;;10.40;99.90;;;;;;5091552;28;20306;-63
2023/03/31 06:48:25;;;;;;;9.13;2.60;;;10.40;99.90;;;;;;5098749;27;20028;-63
2023/03/31 06:50:52;;;;;;;9.57;2.88;;;10.50;99.90;;;;;;5091893;28;20486;-64
2023/03/31 06:53:18;;;;;;;8.10;2.85;;;10.40;99.90;;;;;;5111885;28;20036;-63
2023/03/31 06:55:44;;;;;;;9.77;2.97;;;10.40;99.90;;;;;;5104424;28;20032;-64
2023/03/31 06:58:10;;;;;;;12.48;3.85;;;10.50;99.90;;;;;;5079345;28;20050;-64
2023/03/31 07:00:36;;;;;;;10.30;3.30;;;10.50;99.90;;;;;;5080557;28;20067;-64
2023/03/31 07:03:03;;;;;;;8.75;2.85;;;10.50;99.90;;;;;;5096504;27;20054;-64
2023/03/31 07:05:30;;;;;;;8.20;3.00;;;10.50;99.90;;;;;;5078072;28;20051;-63
2023/03/31 07:07:57;;;;;;;11.23;3.15;;;10.50;99.90;;;;;;5092244;28;20035;-63
2023/03/31 07:10:25;;;;;;;10.02;2.97;;;10.50;99.90;;;;;;5113938;27;20373;-64
2023/03/31 07:12:50;;;;;;;7.65;2.90;;;10.50;99.90;;;;;;5100460;27;20039;-64
2023/03/31 07:15:16;;;;;;;12.30;2.80;;;10.50;99.90;;;;;;5102748;27;20027;-65
2023/03/31 07:17:42;;;;;;;11.57;3.33;;;10.50;99.90;;;;;;5112647;27;20543;-65
2023/03/31 07:20:13;;;;;;;10.10;3.03;;;10.50;99.90;;;;;;5094418;28;20096;-64
2023/03/31 07:22:44;;;;;;;15.15;3.35;;;10.50;99.90;;;;;;5102584;27;20050;-64
2023/03/31 07:25:11;;;;;;;12.57;3.20;;;10.50;99.90;;;;;;5109003;28;20071;-63
2023/03/31 07:27:37;;;;;;;9.10;3.30;;;10.60;99.90;;;;;;5094799;28;20401;-64
2023/03/31 07:30:11;;;;;;;11.82;3.22;;;10.60;99.90;;;;;;5105309;27;20032;-64
2023/03/31 07:32:39;;;;;;;9.85;3.20;;;10.60;99.90;;;;;;5075143;28;20040;-64
2023/03/31 07:35:06;;;;;;;16.02;3.97;;;10.60;99.90;;;;;;5096907;28;20044;-64
2023/03/31 07:37:40;;;;;;;11.15;3.13;;;10.60;99.90;;;;;;5107265;28;20536;-63
2023/03/31 07:40:08;;;;;;;15.18;4.13;;;10.60;99.90;;;;;;5099053;28;20066;-65
2023/03/31 07:42:34;;;;;;;10.07;3.17;;;10.60;99.90;;;;;;5099033;28;20039;-64
2023/03/31 07:45:00;;;;;;;8.48;2.97;;;10.60;99.90;;;;;;5094307;28;20120;-63
2023/03/31 07:47:27;;;;;;;9.73;3.00;;;10.60;99.90;;;;;;5084696;28;20433;-63
2023/03/31 07:49:53;;;;;;;11.30;3.22;;;10.60;99.90;;;;;;5075341;28;20114;-63
2023/03/31 07:52:18;;;;;;;8.40;2.72;;;10.60;99.90;;;;;;5108633;28;20465;-63
2023/03/31 07:54:47;;;;;;;9.65;3.10;;;10.70;99.90;;;;;;5104167;28;20040;-63
2023/03/31 07:57:16;;;;;;;10.60;2.95;;;10.70;99.90;;;;;;5094866;28;20040;-63
2023/03/31 07:59:42;;;;;;;9.55;2.60;;;10.70;99.90;;;;;;5098831;27;20036;-63
2023/03/31 08:02:14;;;;;;;10.02;2.72;;;10.80;99.90;;;;;;5075869;28;20386;-64
2023/03/31 08:04:41;;;;;;;;;;;10.80;99.90;;;;;;5091237;28;20047;-63
2023/03/31 08:07:08;;;;;;;12.32;3.08;;;10.80;99.90;;;;;;5110725;27;19920;-63
2023/03/31 08:09:34;;;;;;;9.52;2.85;;;10.80;99.90;;;;;;5106284;27;20034;-64
2023/03/31 08:12:02;;;;;;;11.93;2.90;;;10.90;99.90;;;;;;5081058;28;20043;-63
2023/03/31 08:14:28;;;;;;;8.63;2.50;;;10.90;99.90;;;;;;5082829;28;20439;-64
2023/03/31 08:16:54;;;;;;;9.35;2.85;;;10.90;99.90;;;;;;5098851;27;20043;-63
2023/03/31 08:19:21;;;;;;;6.53;2.40;;;10.80;99.90;;;;;;5102016;27;20035;-63
2023/03/31 08:21:46;;;;;;;8.75;2.92;;;10.90;99.90;;;;;;5099344;28;20051;-64
2023/03/31 08:24:12;;;;;;;8.80;2.80;;;10.90;99.90;;;;;;5106200;28;20049;-64
2023/03/31 08:26:39;;;;;;;11.35;2.92;;;10.90;99.90;;;;;;5075044;28;20063;-64
2023/03/31 08:29:05;;;;;;;7.47;2.92;;;10.90;99.90;;;;;;5098886;28;20039;-64
2023/03/31 08:31:31;;;;;;;9.20;2.78;;;11.00;99.90;;;;;;5072685;28;20038;-64
2023/03/31 08:33:56;;;;;;;9.52;2.45;;;11.00;99.90;;;;;;5109764;28;20039;-64
2023/03/31 08:36:22;;;;;;;6.45;2.60;;;11.00;99.90;;;;;;5104962;28;20043;-64
2023/03/31 08:38:48;;;;;;;8.65;3.53;;;10.90;99.90;;;;;;5107274;28;20040;-63
2023/03/31 08:41:39;;;;;;;7.28;2.90;;;11.00;99.90;;;;;;5079984;28;20090;-64
2023/03/31 08:44:16;;;;;;;9.23;2.72;;;10.90;99.90;;;;;;5096118;28;20114;-63
2023/03/31 08:46:42;;;;;;;8.63;2.72;;;11.00;99.90;;;;;;5081666;28;20040;-64
2023/03/31 08:49:17;;;;;;;7.63;2.65;;;11.00;99.90;;;;;;5116016;27;20484;-63
2023/03/31 08:51:49;;;;;;;10.30;2.90;;;11.00;99.90;;;;;;5121584;27;20470;-64
2023/03/31 08:54:58;;;;;;;9.43;2.80;;;11.10;99.90;;;;;;5087669;28;20047;-63
2023/03/31 08:57:30;;;;;;;5.20;2.40;;;11.20;99.90;;;;;;5019737;28;20046;-63
2023/03/31 08:59:57;;;;;;;7.80;2.10;;;11.20;99.90;;;;;;5019900;28;20140;-64
2023/03/31 09:02:26;;;;;;;5.65;2.03;;;11.10;99.90;;;;;;5066096;28;20055;-63
2023/03/31 09:05:05;;;;;;;9.23;1.92;;;11.10;99.90;;;;;;5095142;28;20433;-64
2023/03/31 09:08:12;;;;;;;7.85;1.88;;;11.10;99.90;;;;;;5113711;27;20072;-64
2023/03/31 09:11:10;;;;;;;7.03;2.10;;;11.00;99.90;;;;;;5089842;28;20044;-64
2023/03/31 09:13:43;;;;;;;5.68;1.80;;;11.00;99.90;;;;;;5079953;28;20040;-64
2023/03/31 09:16:14;;;;;;;6.63;2.25;;;11.00;99.90;;;;;;5112085;27;20432;-64
2023/03/31 09:18:45;;;;;;;7.32;2.42;;;11.10;99.90;;;;;;5113943;28;20090;-63
2023/03/31 09:21:34;;;;;;;7.80;1.98;;;11.00;99.90;;;;;;5118259;22;20032;-76
2023/03/31 09:24:12;;;;;;;6.78;2.20;;;11.00;99.90;;;;;;5072870;28;20055;-76
2023/03/31 09:26:40;;;;;;;6.18;2.15;;;11.00;99.90;;;;;;5076577;28;20085;-76
2023/03/31 09:29:23;;;;;;;5.10;2.40;;;11.80;99.90;;;;;;5075749;28;20040;-76
2023/03/31 09:31:49;;;;;;;7.97;2.40;;;11.00;99.90;;;;;;5075836;28;20368;-76
2023/03/31 09:34:30;;;;;;;9.15;3.03;;;11.00;99.90;;;;;;5082024;28;20048;-77
2023/03/31 09:36:55;;;;;;;5.75;1.92;;;11.00;99.90;;;;;;5073741;28;20052;-76
2023/03/31 09:39:21;;;;;;;6.10;2.30;;;11.00;99.90;;;;;;5093808;28;20441;-75
2023/03/31 09:41:49;;;;;;;5.10;2.20;;;11.00;99.90;;;;;;5068682;28;20084;-76
2023/03/31 09:44:26;;;;;;;5.00;2.10;;;11.10;99.90;;;;;;5078607;28;20047;-77
2023/03/31 09:46:54;;;;;;;9.20;2.30;;;11.10;99.90;;;;;;5080579;28;20369;-76
2023/03/31 09:49:24;;;;;;;4.47;1.80;;;11.20;99.90;;;;;;5075343;28;20063;-77
2023/03/31 09:52:24;;;;;;;7.97;2.33;;;11.20;99.90;;;;;;5075689;28;20040;-75
2023/03/31 09:54:53;;;;;;;4.97;1.83;;;11.30;99.90;;;;;;5049481;28;20084;-74
2023/03/31 09:57:45;;;;;;;5.85;1.95;;;11.30;99.90;;;;;;5053842;28;20048;-75
2023/03/31 10:00:14;;;;;;;6.50;2.15;;;11.40;99.90;;;;;;5069544;28;20078;-75
2023/03/31 10:03:01;;;;;;;6.03;2.00;;;11.50;99.90;;;;;;5077797;28;20044;-75
2023/03/31 10:05:58;;;;;;;7.15;1.90;;;11.50;99.90;;;;;;5072517;28;20074;-75
2023/03/31 10:08:37;;;;;;;4.60;1.75;;;11.60;99.90;;;;;;5063306;28;20052;-74
2023/03/31 10:11:02;;;;;;;6.13;1.90;;;11.60;99.90;;;;;;5083729;28;20083;-75
2023/03/31 10:13:48;;;;;;;6.05;2.20;;;11.70;99.90;;;;;;5076233;28;20039;-75
2023/03/31 10:16:22;;;;;;;5.38;1.83;;;11.80;99.90;;;;;;5066728;28;20131;-75
2023/03/31 10:18:48;;;;;;;7.93;1.80;;;11.90;99.90;;;;;;5072562;28;20047;-75
2023/03/31 10:21:34;;;;;;;6.57;1.67;;;11.90;99.90;;;;;;5074382;28;20044;-75
2023/03/31 10:24:00;;;;;;;6.90;2.08;;;11.90;99.90;;;;;;5071962;28;20048;-75
2023/03/31 10:26:28;;;;;;;7.38;2.05;;;11.90;99.90;;;;;;5076095;28;20396;-74
2023/03/31 10:28:54;;;;;;;4.40;1.70;;;11.90;99.90;;;;;;5075016;28;20499;-74
2023/03/31 10:31:25;;;;;;;5.70;1.70;;;11.90;99.90;;;;;;5093034;28;20058;-75
2023/03/31 10:33:51;;;;;;;5.38;2.15;;;11.80;99.90;;;;;;5075385;28;20059;-75
2023/03/31 10:36:22;;;;;;;5.53;1.92;;;11.80;99.90;;;;;;5074565;28;20482;-74
2023/03/31 10:38:50;;;;;;;6.60;2.00;;;11.70;99.90;;;;;;5096492;28;20384;-78
2023/03/31 10:41:22;;;;;;;5.60;2.15;;;11.80;99.90;;;;;;5083558;28;20051;-75
2023/03/31 10:43:52;;;;;;;;;;;11.70;99.90;;;;;;5094718;28;20051;-75
2023/03/31 10:46:19;;;;;;;6.95;2.40;;;11.70;99.90;;;;;;5078667;28;19947;-77
2023/03/31 10:48:45;;;;;;;6.13;2.42;;;11.70;99.90;;;;;;5092739;28;20459;-75
2023/03/31 10:51:14;;;;;;;6.40;2.08;;;11.70;99.90;;;;;;5074501;28;20040;-77
2023/03/31 10:53:48;;;;;;;4.57;2.13;;;11.70;99.90;;;;;;5058251;28;20043;-75
2023/03/31 10:56:44;;;;;;;5.68;2.22;;;11.70;99.90;;;;;;5080129;28;20043;-75
2023/03/31 10:59:12;;;;;;;7.57;2.70;;;11.80;99.90;;;;;;5078884;28;20457;-75
2023/03/31 11:02:09;;;;;;;8.18;2.50;;;11.80;99.90;;;;;;5074392;28;20039;-76
2023/03/31 11:04:54;;;;;;;7.22;2.50;;;11.80;99.90;;;;;;5063532;28;20040;-78
2023/03/31 11:07:41;;;;;;;8.27;2.58;;;11.80;99.90;;;;;;5073478;28;20492;-75
2023/03/31 11:10:45;;;;;;;8.13;2.78;;;11.90;99.90;;;;;;5072247;28;20510;-76
2023/03/31 11:13:19;;;;;;;6.78;2.58;;;11.90;99.90;;;;;;5076912;28;20044;-76
2023/03/31 11:15:59;;;;;;;5.97;2.72;;;11.90;99.90;;;;;;5057214;28;20039;-79
2023/03/31 11:18:28;;;;;;;7.28;3.00;;;11.90;99.90;;;;;;5066445;28;20032;-78
2023/03/31 11:21:27;;;;;;;7.13;3.15;;;11.90;99.90;;;;;;5080384;28;20040;-76
2023/03/31 11:24:07;;;;;;;10.02;3.13;;;12.10;99.90;;;;;;5063485;28;20098;-75
2023/03/31 11:26:39;;;;;;;9.98;3.38;;;12.10;99.90;;;;;;5070275;28;20169;-75
2023/03/31 11:29:19;;;;;;;12.93;3.20;;;12.20;99.90;;;;;;5076565;28;20047;-75
2023/03/31 11:32:08;;;;;;;14.50;3.42;;;12.30;99.90;;;;;;5076088;28;20576;-75
2023/03/31 11:35:03;;;;;;;14.27;3.15;;;12.40;99.90;;;;;;5067259;28;20146;-75
2023/03/31 11:37:41;;;;;;;9.80;3.20;;;12.50;99.90;;;;;;5050358;28;20115;-75
2023/03/31 11:40:22;;;;;;;9.00;2.72;;;12.50;99.90;;;;;;5073642;28;20499;-75
2023/03/31 11:42:53;;;;;;;10.45;3.00;;;12.60;99.90;;;;;;5073765;28;20093;-78
2023/03/31 11:45:30;;;;;;;13.00;3.47;;;12.60;99.90;;;;;;5087847;28;20063;-76
2023/03/31 11:48:02;;;;;;;11.82;3.67;;;12.70;99.90;;;;;;5073691;28;20044;-75
2023/03/31 11:50:38;;;;;;;10.95;2.95;;;12.70;99.90;;;;;;5073526;28;20040;-76
2023/03/31 11:53:22;;;;;;;11.70;3.42;;;12.70;99.90;;;;;;5084212;28;20093;-77
2023/03/31 11:55:52;;;;;;;13.68;3.00;;;12.90;99.90;;;;;;5055698;28;20058;-75
2023/03/31 11:58:25;;;;;;;9.52;3.00;;;13.10;99.90;;;;;;5080287;28;20044;-78
2023/03/31 12:01:16;;;;;;;15.55;3.63;;;13.20;99.90;;;;;;5073581;28;20047;-75
2023/03/31 12:03:52;;;;;;;10.57;2.90;;;13.30;99.90;;;;;;5065519;28;20088;-75
2023/03/31 12:06:20;;;;;;;11.80;3.38;;;13.30;99.90;;;;;;5076553;28;20035;-75
2023/03/31 12:09:00;;;;;;;11.60;2.97;;;13.40;99.90;;;;;;5073504;28;20044;-75
2023/03/31 12:12:07;;;;;;;16.20;3.78;;;13.40;99.90;;;;;;5065697;28;20388;-75
2023/03/31 12:14:36;;;;;;;14.65;3.42;;;13.40;99.90;;;;;;5068301;28;20393;-75
2023/03/31 12:17:13;;;;;;;11.40;3.22;;;13.40;99.90;;;;;;5070294;28;20043;-75
2023/03/31 12:19:54;;;;;;;15.90;4.45;;;13.30;99.90;;;;;;5080277;28;20039;-75
2023/03/31 12:22:36;;;;;;;13.90;3.22;;;13.30;99.90;;;;;;5073472;28;20038;-75
2023/03/31 12:25:02;;;;;;;;;;;13.30;99.90;;;;;;5072425;28;20442;-75
2023/03/31 12:27:41;;;;;;;14.50;3.13;;;13.20;99.90;;;;;;5072821;28;19922;-75
2023/03/31 12:30:29;;;;;;;12.65;3.28;;;13.20;99.90;;;;;;5083779;28;20054;-76
2023/03/31 12:33:01;;;;;;;15.57;3.42;;;13.10;99.90;;;;;;5073346;28;20411;-78
2023/03/31 12:35:34;;;;;;;14.20;2.85;;;13.00;99.90;;;;;;5073051;28;20032;-75
2023/03/31 12:38:20;;;;;;;10.50;3.53;;;12.90;99.90;;;;;;5073503;28;20461;-77
2023/03/31 12:41:02;;;;;;;13.60;3.20;;;12.90;99.90;;;;;;5081406;28;20036;-75
2023/03/31 12:44:04;;;;;;;13.80;2.60;;;12.80;99.90;;;;;;5073260;28;20050;-75
2023/03/31 12:47:02;;;;;;;16.27;3.38;;;12.80;99.90;;;;;;5061100;28;20544;-75
2023/03/31 12:49:53;;;;;;;12.60;3.22;;;12.80;99.90;;;;;;5073576;28;20172;-77
2023/03/31 12:52:36;;;;;;;11.15;3.05;;;12.70;99.90;;;;;;5073564;28;20044;-75
2023/03/31 12:55:42;;;;;;;11.75;3.25;;;12.80;99.90;;;;;;5072775;28;20048;-75
2023/03/31 12:58:23;;;;;;;16.10;3.15;;;12.80;99.90;;;;;;5073342;28;20055;-75
2023/03/31 13:01:03;;;;;;;11.82;3.10;;;12.80;99.90;;;;;;5072913;28;20120;-74
2023/03/31 13:04:10;;;;;;;13.20;2.92;;;12.80;99.90;;;;;;5078962;28;20043;-75
2023/03/31 13:06:36;;;;;;;11.13;2.88;;;12.80;99.90;;;;;;5001853;28;20040;-75
2023/03/31 13:09:12;;;;;;;11.00;2.38;;;12.70;99.90;;;;;;5056202;28;20137;-75